createdAt,value
2019-04-21T00:01:49.014Z,40.71
2019-04-21T00:04:30.870Z,40.26
2019-04-21T00:07:08.713Z,40.21
2019-04-21T00:09:50.687Z,40.19
2019-04-21T00:12:13.987Z,40.57
2019-04-21T00:14:34.911Z,40.62
2019-04-21T00:17:00.621Z,40.80
2019-04-21T00:19:35.713Z,41.32
2019-04-21T00:22:14.943Z,42.08
2019-04-21T00:24:51.682Z,42.58
2019-04-21T00:27:26.564Z,43.08
2019-04-21T00:29:58.487Z,42.65
2019-04-21T00:32:24.549Z,42.58
2019-04-21T00:34:48.425Z,42.13
2019-04-21T00:37:22.419Z,42.29
2019-04-21T00:40:06.153Z,42.23
2019-04-21T00:42:37.642Z,42.49
2019-04-21T00:45:02.078Z,42.31
2019-04-21T00:47:34.708Z,42.14
2019-04-21T00:50:14.343Z,42.24
2019-04-21T00:52:56.222Z,42.40
2019-04-21T00:55:32.251Z,42.50
2019-04-21T00:58:03.225Z,42.64
2019-04-21T01:00:32.440Z,43.17
2019-04-21T01:03:12.866Z,43.66
2019-04-21T01:05:41.099Z,44.25
2019-04-21T01:08:10.007Z,44.76
2019-04-21T01:10:31.976Z,44.92
2019-04-21T01:13:18.837Z,44.76
2019-04-21T01:18:16.470Z,44.30
2019-04-21T01:20:23.435Z,44.38
2019-04-21T01:22:53.736Z,44.24
2019-04-21T01:25:32.116Z,44.11
2019-04-21T01:28:16.992Z,44.09
2019-04-21T01:30:44.881Z,44.15
2019-04-21T01:33:24.835Z,44.36
2019-04-21T01:35:48.517Z,44.14
2019-04-21T01:38:21.635Z,44.23
2019-04-21T01:40:54.429Z,44.34
2019-04-21T01:43:24.897Z,44.45
2019-04-21T01:45:53.933Z,44.55
2019-04-21T01:48:19.553Z,44.79
2019-04-21T01:50:58.980Z,45.20
2019-04-21T01:53:38.230Z,45.52
2019-04-21T01:56:35.651Z,45.45
2019-04-21T01:58:53.832Z,45.69
2019-04-21T02:01:36.048Z,45.52
2019-04-21T02:04:12.592Z,45.52
2019-04-21T02:06:41.306Z,45.65
2019-04-21T02:09:05.116Z,45.56
2019-04-21T02:11:47.039Z,45.65
2019-04-21T02:14:15.741Z,45.35
2019-04-21T02:16:40.638Z,45.57
2019-04-21T02:19:11.638Z,45.80
2019-04-21T02:21:38.284Z,45.72
2019-04-21T02:24:23.583Z,45.84
2019-04-21T02:26:49.413Z,45.96
2019-04-21T02:29:23.023Z,45.98
2019-04-21T02:32:01.957Z,46.23
2019-04-21T02:34:37.477Z,46.07
2019-04-21T02:37:17.902Z,46.23
2019-04-21T02:39:43.346Z,46.39
2019-04-21T02:42:11.614Z,46.28
2019-04-21T02:44:42.868Z,46.56
2019-04-21T02:47:09.227Z,46.63
2019-04-21T02:52:23.737Z,47.43
2019-04-21T02:57:18.441Z,47.67
2019-04-21T03:02:46.778Z,48.15
2019-04-21T03:05:39.099Z,48.30
2019-04-21T03:08:03.625Z,48.79
2019-04-21T03:10:36.104Z,48.70
2019-04-21T03:13:10.835Z,48.68
2019-04-21T03:15:49.366Z,48.92
2019-04-21T03:18:06.308Z,48.99
2019-04-21T03:20:53.238Z,49.24
2019-04-21T03:28:14.293Z,49.70
2019-04-21T03:33:58.625Z,49.85
2019-04-21T03:36:13.280Z,49.60
2019-04-21T03:40:40.547Z,50.68
2019-04-21T03:43:20.916Z,50.87
2019-04-21T03:45:42.811Z,50.71
2019-04-21T03:48:17.307Z,50.93
2019-04-21T03:50:49.156Z,51.03
2019-04-21T03:53:26.522Z,50.30
2019-04-21T03:55:52.982Z,50.02
2019-04-21T04:01:28.111Z,50.41
2019-04-21T04:04:15.562Z,50.70
2019-04-21T04:06:55.587Z,51.00
2019-04-21T04:11:56.468Z,51.05
2019-04-21T04:14:33.446Z,51.12
2019-04-21T04:17:04.669Z,52.18
2019-04-21T04:27:11.163Z,51.57
2019-04-21T04:29:35.502Z,52.19
2019-04-21T04:32:04.956Z,52.35
2019-04-21T04:34:53.738Z,52.53
2019-04-21T04:37:30.381Z,52.69
2019-04-21T04:39:51.856Z,52.70
2019-04-21T04:45:05.866Z,53.11
2019-04-21T04:47:29.468Z,52.21
2019-04-21T04:55:17.142Z,51.43
2019-04-21T04:57:49.680Z,51.39
2019-04-21T05:00:22.005Z,51.73
2019-04-21T05:05:13.772Z,50.28
2019-04-21T05:07:52.361Z,50.24
2019-04-21T05:10:05.328Z,50.33
2019-04-21T05:12:38.784Z,50.55
2019-04-21T05:15:11.508Z,50.83
2019-04-21T05:17:46.344Z,50.69
2019-04-21T05:22:45.901Z,50.16
2019-04-21T05:25:03.504Z,49.64
2019-04-21T05:27:38.628Z,49.75
2019-04-21T05:30:28.489Z,49.51
2019-04-21T05:33:18.774Z,49.39
2019-04-21T05:35:57.353Z,49.45
2019-04-21T05:38:34.639Z,49.36
2019-04-21T05:41:02.469Z,48.96
2019-04-21T05:43:39.073Z,48.73
2019-04-21T05:46:12.429Z,48.45
2019-04-21T05:48:45.686Z,48.53
2019-04-21T05:51:18.424Z,48.34
2019-04-21T05:53:46.724Z,47.89
2019-04-21T05:56:25.702Z,47.78
2019-04-21T05:58:54.166Z,48.02
2019-04-21T06:01:40.824Z,47.94
2019-04-21T06:03:57.358Z,47.83
2019-04-21T06:06:33.782Z,48.13
2019-04-21T06:08:59.505Z,47.56
2019-04-21T06:11:33.035Z,47.41
2019-04-21T06:14:02.107Z,46.93
2019-04-21T06:16:36.475Z,46.87
2019-04-21T06:19:29.378Z,47.24
2019-04-21T06:21:35.725Z,47.30
2019-04-21T06:24:05.217Z,47.53
2019-04-21T06:29:09.098Z,47.82
2019-04-21T06:34:18.594Z,47.35
2019-04-21T06:36:56.659Z,47.45
2019-04-21T06:39:31.840Z,46.52
2019-04-21T06:41:59.834Z,46.12
2019-04-21T06:44:33.719Z,46.07
2019-04-21T06:47:06.246Z,46.15
2019-04-21T06:49:30.949Z,46.87
2019-04-21T06:52:18.052Z,47.21
2019-04-21T06:54:44.696Z,46.97
2019-04-21T06:57:08.678Z,46.82
2019-04-21T06:59:31.980Z,46.62
2019-04-21T07:04:46.936Z,48.09
2019-04-21T07:07:12.986Z,47.85
2019-04-21T07:09:50.503Z,48.15
2019-04-21T07:12:13.805Z,48.18
2019-04-21T07:14:42.077Z,48.41
2019-04-21T07:17:22.138Z,49.32
2019-04-21T07:22:24.571Z,49.94
2019-04-21T07:24:50.112Z,50.88
2019-04-21T07:27:24.133Z,50.39
2019-04-21T07:29:59.657Z,50.57
2019-04-21T07:32:29.862Z,50.20
2019-04-21T07:35:00.627Z,49.42
2019-04-21T07:37:33.540Z,49.79
2019-04-21T07:39:57.434Z,50.26
2019-04-21T07:42:24.294Z,51.16
2019-04-21T07:44:52.286Z,49.81
2019-04-21T07:47:39.598Z,50.75
2019-04-21T07:50:14.946Z,51.46
2019-04-21T07:52:58.158Z,50.79
2019-04-21T07:57:47.455Z,50.48
2019-04-21T08:00:30.873Z,50.04
2019-04-21T08:02:58.143Z,50.35
2019-04-21T08:05:26.414Z,49.78
2019-04-21T08:07:57.139Z,49.11
2019-04-21T08:10:30.015Z,50.05
2019-04-21T08:12:59.758Z,48.93
2019-04-21T08:15:34.234Z,48.65
2019-04-21T08:18:06.696Z,47.31
2019-04-21T08:20:34.899Z,47.68
2019-04-21T08:23:11.095Z,47.06
2019-04-21T08:25:45.959Z,46.43
2019-04-21T08:28:05.717Z,45.81
2019-04-21T08:30:57.527Z,45.49
2019-04-21T08:33:16.171Z,44.95
2019-04-21T08:36:03.309Z,46.04
2019-04-21T08:38:15.105Z,44.18
2019-04-21T08:40:47.953Z,44.03
2019-04-21T08:43:20.560Z,45.43
2019-04-21T08:45:46.823Z,43.27
2019-04-21T08:48:16.964Z,42.90
2019-04-21T08:51:06.342Z,42.81
2019-04-21T08:53:24.726Z,42.85
2019-04-21T08:56:21.444Z,42.62
2019-04-21T08:59:17.834Z,43.38
2019-04-21T09:02:04.263Z,42.87
2019-04-21T09:04:29.239Z,42.73
2019-04-21T09:09:34.026Z,43.31
2019-04-21T09:12:07.568Z,42.95
2019-04-21T09:14:36.869Z,42.95
2019-04-21T09:17:07.563Z,43.44
2019-04-21T09:19:51.029Z,42.93
2019-04-21T09:22:14.742Z,43.32
2019-04-21T09:24:42.704Z,42.44
2019-04-21T09:27:10.056Z,43.57
2019-04-21T09:29:35.889Z,42.47
2019-04-21T09:32:00.030Z,43.64
2019-04-21T09:34:35.923Z,42.62
2019-04-21T09:37:17.559Z,42.83
2019-04-21T09:39:33.368Z,41.50
2019-04-21T09:42:04.754Z,41.36
2019-04-21T09:44:40.004Z,41.04
2019-04-21T09:47:07.430Z,39.49
2019-04-21T09:49:38.016Z,39.17
2019-04-21T09:52:18.622Z,39.56
2019-04-21T09:54:49.363Z,38.05
2019-04-21T09:57:22.487Z,38.94
2019-04-21T09:59:49.037Z,38.26
2019-04-21T10:02:18.147Z,39.10
2019-04-21T10:04:46.109Z,40.05
2019-04-21T10:07:24.691Z,38.12
2019-04-21T10:09:47.906Z,38.27
2019-04-21T10:12:19.850Z,37.70
2019-04-21T10:14:49.554Z,37.21
2019-04-21T10:17:29.598Z,36.87
2019-04-21T10:19:59.175Z,36.21
2019-04-21T10:22:28.913Z,35.50
2019-04-21T10:24:58.542Z,36.51
2019-04-21T10:27:29.436Z,36.01
2019-04-21T10:29:59.082Z,34.74
2019-04-21T10:32:28.610Z,35.05
2019-04-21T10:34:59.203Z,35.43
2019-04-21T10:37:42.790Z,34.11
2019-04-21T10:40:01.130Z,34.23
2019-04-21T10:42:31.339Z,33.76
2019-04-21T10:45:01.127Z,34.15
2019-04-21T10:47:31.299Z,33.16
2019-04-21T10:50:00.827Z,32.96
2019-04-21T10:52:49.438Z,32.46
2019-04-21T10:55:36.728Z,30.68
2019-04-21T10:58:24.711Z,31.63
2019-04-21T11:01:10.599Z,33.06
2019-04-21T11:03:44.899Z,31.07
2019-04-21T11:06:16.952Z,31.21
2019-04-21T11:08:50.270Z,31.96
2019-04-21T11:11:17.821Z,31.35
2019-04-21T11:13:48.453Z,30.59
2019-04-21T11:16:19.182Z,31.90
2019-04-21T11:18:48.770Z,33.04
2019-04-21T11:21:18.814Z,31.85
2019-04-21T11:23:50.032Z,31.85
2019-04-21T11:26:20.061Z,31.32
2019-04-21T11:28:50.579Z,31.88
2019-04-21T11:31:20.936Z,31.30
2019-04-21T11:33:51.183Z,30.41
2019-04-21T11:36:21.634Z,30.57
2019-04-21T11:39:16.362Z,31.94
2019-04-21T11:41:31.938Z,31.83
2019-04-21T11:44:01.559Z,30.30
2019-04-21T11:46:31.288Z,32.33
2019-04-21T11:49:02.244Z,30.29
2019-04-21T11:51:33.304Z,31.33
2019-04-21T11:54:02.955Z,32.54
2019-04-21T11:56:32.771Z,30.55
2019-04-21T11:59:03.730Z,30.93
2019-04-21T12:01:33.789Z,31.47
2019-04-21T12:04:03.549Z,29.66
2019-04-21T12:06:40.920Z,31.07
2019-04-21T12:09:07.864Z,29.47
2019-04-21T12:11:38.998Z,29.87
2019-04-21T12:14:09.906Z,28.20
2019-04-21T12:16:41.203Z,28.76
2019-04-21T12:19:12.476Z,28.70
2019-04-21T12:21:54.619Z,28.68
2019-04-21T12:24:13.431Z,28.26
2019-04-21T12:26:44.148Z,28.64
2019-04-21T12:29:14.577Z,29.05
2019-04-21T12:31:55.260Z,28.71
2019-04-21T12:34:25.937Z,28.73
2019-04-21T12:36:56.959Z,28.60
2019-04-21T12:39:27.104Z,29.63
2019-04-21T12:41:56.857Z,30.06
2019-04-21T12:44:27.505Z,28.90
2019-04-21T12:46:59.763Z,29.57
2019-04-21T12:49:29.740Z,28.35
2019-04-21T12:51:59.682Z,29.64
2019-04-21T12:54:29.874Z,29.08
2019-04-21T12:57:01.285Z,28.65
2019-04-21T12:59:32.500Z,27.93
2019-04-21T13:02:03.249Z,27.08
2019-04-21T13:04:33.548Z,28.07
2019-04-21T13:07:03.700Z,28.64
2019-04-21T13:09:34.280Z,28.33
2019-04-21T13:12:04.934Z,30.03
2019-04-21T13:14:35.752Z,28.52
2019-04-21T13:17:05.647Z,27.54
2019-04-21T13:19:36.458Z,28.30
2019-04-21T13:22:06.154Z,29.87
2019-04-21T13:24:36.044Z,28.19
2019-04-21T13:27:07.464Z,29.08
2019-04-21T13:29:38.595Z,27.52
2019-04-21T13:32:09.346Z,26.07
2019-04-21T13:34:40.089Z,26.79
2019-04-21T13:37:09.856Z,29.09
2019-04-21T13:40:23.688Z,28.59
2019-04-21T13:42:37.935Z,27.14
2019-04-21T13:45:02.529Z,27.92
2019-04-21T13:47:32.509Z,28.58
2019-04-21T13:50:03.646Z,27.41
2019-04-21T13:52:33.568Z,28.39
2019-04-21T13:55:05.468Z,26.73
2019-04-21T13:57:36.481Z,27.85
2019-04-21T14:00:06.922Z,27.15
2019-04-21T14:02:36.676Z,28.39
2019-04-21T14:05:08.571Z,28.69
2019-04-21T14:07:38.534Z,28.40
2019-04-21T14:10:10.492Z,27.53
2019-04-21T14:12:40.514Z,26.77
2019-04-21T14:15:10.405Z,28.09
2019-04-21T14:17:39.946Z,28.90
2019-04-21T14:20:10.897Z,27.40
2019-04-21T14:22:42.120Z,27.20
2019-04-21T14:25:12.160Z,28.04
2019-04-21T14:27:41.911Z,28.23
2019-04-21T14:30:12.288Z,29.02
2019-04-21T14:32:42.131Z,28.58
2019-04-21T14:35:12.509Z,28.12
2019-04-21T14:37:42.542Z,28.08
2019-04-21T14:40:20.092Z,27.24
2019-04-21T14:42:44.929Z,26.47
2019-04-21T14:45:27.139Z,27.14
2019-04-21T14:48:23.209Z,28.28
2019-04-21T14:51:21.011Z,28.79
2019-04-21T14:54:03.717Z,27.77
2019-04-21T14:56:33.540Z,26.79
2019-04-21T14:59:05.310Z,27.76
2019-04-21T15:01:35.872Z,27.63
2019-04-21T15:04:05.941Z,27.10
2019-04-21T15:06:37.140Z,27.51
2019-04-21T15:09:07.671Z,27.31
2019-04-21T15:11:38.190Z,29.27
2019-04-21T15:14:08.135Z,29.80
2019-04-21T15:16:38.668Z,28.80
2019-04-21T15:19:08.639Z,27.64
2019-04-21T15:21:38.289Z,29.57
2019-04-21T15:24:08.674Z,28.96
2019-04-21T15:26:40.043Z,26.90
2019-04-21T15:29:10.817Z,26.66
2019-04-21T15:31:44.682Z,26.60
2019-04-21T15:34:13.182Z,25.36
2019-04-21T15:36:44.053Z,25.89
2019-04-21T15:39:13.975Z,26.09
2019-04-21T15:41:44.912Z,26.85
2019-04-21T15:44:14.678Z,27.02
2019-04-21T15:46:44.184Z,28.72
2019-04-21T15:49:14.971Z,27.56
2019-04-21T15:51:46.380Z,27.77
2019-04-21T15:54:16.526Z,28.74
2019-04-21T15:56:51.302Z,28.03
2019-04-21T15:59:30.607Z,29.60
2019-04-21T16:02:08.403Z,29.26
2019-04-21T16:04:38.931Z,28.96
2019-04-21T16:07:08.845Z,29.29
2019-04-21T16:09:39.846Z,28.74
2019-04-21T16:12:09.759Z,28.72
2019-04-21T16:14:40.677Z,28.24
2019-04-21T16:17:11.675Z,27.69
2019-04-21T16:19:41.673Z,28.69
2019-04-21T16:22:12.617Z,29.19
2019-04-21T16:24:43.890Z,29.43
2019-04-21T16:27:13.544Z,28.58
2019-04-21T16:29:43.857Z,28.78
2019-04-21T16:32:16.325Z,29.46
2019-04-21T16:34:50.986Z,28.60
2019-04-21T16:37:17.326Z,28.83
2019-04-21T16:39:47.453Z,28.79
2019-04-21T16:42:18.234Z,28.38
2019-04-21T16:44:48.917Z,28.69
2019-04-21T16:47:19.382Z,28.87
2019-04-21T16:49:49.863Z,29.08
2019-04-21T16:52:32.198Z,29.26
2019-04-21T16:55:19.088Z,29.43
2019-04-21T16:58:03.056Z,29.61
2019-04-21T17:00:35.060Z,29.60
2019-04-21T17:02:56.834Z,29.42
2019-04-21T17:05:27.813Z,29.52
2019-04-21T17:07:57.819Z,29.93
2019-04-21T17:10:28.710Z,30.15
2019-04-21T17:12:59.911Z,29.99
2019-04-21T17:15:50.682Z,29.89
2019-04-21T17:18:22.104Z,29.83
2019-04-21T17:20:41.813Z,29.87
2019-04-21T17:23:05.154Z,29.79
2019-04-21T17:25:36.814Z,30.44
2019-04-21T17:28:07.839Z,30.67
2019-04-21T17:30:37.711Z,30.71
2019-04-21T17:33:10.277Z,31.14
2019-04-21T17:35:40.790Z,31.37
2019-04-21T17:38:12.100Z,31.31
2019-04-21T17:40:42.207Z,31.36
2019-04-21T17:43:14.703Z,31.25
2019-04-21T17:45:43.242Z,31.69
2019-04-21T17:48:15.938Z,32.04
2019-04-21T17:51:19.160Z,32.26
2019-04-21T17:54:16.703Z,32.21
2019-04-21T17:57:20.218Z,32.55
2019-04-21T17:59:47.600Z,32.27
2019-04-21T18:01:59.451Z,32.62
2019-04-21T18:04:37.803Z,32.86
2019-04-21T18:07:18.946Z,32.71
2019-04-21T18:09:56.550Z,32.48
2019-04-21T18:12:22.605Z,33.16
2019-04-21T18:14:51.282Z,33.30
2019-04-21T18:17:10.716Z,33.22
2019-04-21T18:19:43.655Z,33.30
2019-04-21T18:22:34.779Z,33.77
2019-04-21T18:25:06.975Z,33.96
2019-04-21T18:27:34.436Z,34.02
2019-04-21T18:30:24.342Z,33.42
2019-04-21T18:32:57.028Z,33.49
2019-04-21T18:35:36.010Z,33.56
2019-04-21T18:38:13.901Z,33.57
2019-04-21T18:40:42.354Z,33.90
2019-04-21T18:46:29.521Z,34.17
2019-04-21T18:48:51.530Z,34.14
2019-04-21T18:51:34.650Z,34.51
2019-04-21T18:54:26.708Z,34.36
2019-04-21T18:56:37.042Z,34.52
2019-04-21T18:59:06.933Z,34.31
2019-04-21T19:01:38.426Z,34.57
2019-04-21T19:04:14.318Z,34.73
2019-04-21T19:06:55.594Z,34.83
2019-04-21T19:09:35.603Z,35.24
2019-04-21T19:11:59.195Z,35.81
2019-04-21T19:14:36.333Z,36.05
2019-04-21T19:17:15.914Z,36.71
2019-04-21T19:22:11.916Z,36.83
2019-04-21T19:27:20.859Z,37.17
2019-04-21T19:29:56.152Z,37.35
2019-04-21T19:32:21.477Z,38.11
2019-04-21T19:34:35.913Z,37.96
2019-04-21T19:37:09.290Z,37.96
2019-04-21T19:39:45.942Z,38.42
2019-04-21T19:42:16.939Z,39.03
2019-04-21T19:44:52.189Z,39.45
2019-04-21T19:47:28.243Z,39.61
2019-04-21T19:50:01.451Z,40.07
2019-04-21T19:52:25.567Z,39.77
2019-04-21T19:54:44.910Z,39.88
2019-04-21T19:57:16.666Z,39.91
2019-04-21T19:59:52.036Z,40.42
2019-04-21T20:02:20.486Z,40.72
2019-04-21T20:04:58.927Z,40.94
2019-04-21T20:07:37.799Z,41.13
2019-04-21T20:10:14.309Z,41.42
2019-04-21T20:12:55.628Z,41.41
2019-04-21T20:15:20.314Z,41.17
2019-04-21T20:17:43.808Z,41.45
2019-04-21T20:19:58.321Z,40.87
2019-04-21T20:22:34.883Z,40.98
2019-04-21T20:25:07.721Z,40.10
2019-04-21T20:27:38.580Z,39.73
2019-04-21T20:30:21.674Z,39.41
2019-04-21T20:32:55.982Z,38.46
2019-04-21T20:35:35.009Z,38.25
2019-04-21T20:37:55.065Z,38.01
2019-04-21T20:40:22.781Z,37.38
2019-04-21T20:42:58.880Z,37.04
2019-04-21T20:45:36.170Z,36.81
2019-04-21T20:47:50.692Z,36.83
2019-04-21T20:50:33.461Z,36.63
2019-04-21T20:53:06.081Z,36.30
2019-04-21T20:55:30.262Z,36.47
2019-04-21T20:58:04.160Z,36.30
2019-04-21T21:00:49.082Z,36.35
2019-04-21T21:03:13.499Z,36.44
2019-04-21T21:05:39.886Z,36.13
2019-04-21T21:08:18.001Z,35.79
2019-04-21T21:10:45.801Z,35.98
2019-04-21T21:13:26.696Z,36.35
2019-04-21T21:16:06.197Z,36.32
2019-04-21T21:18:38.534Z,36.50
2019-04-21T21:20:56.039Z,35.83
2019-04-21T21:23:24.099Z,35.99
2019-04-21T21:26:00.627Z,36.03
2019-04-21T21:28:27.681Z,36.04
2019-04-21T21:30:59.387Z,35.97
2019-04-21T21:33:27.404Z,36.18
2019-04-21T21:36:06.441Z,36.19
2019-04-21T21:38:30.960Z,36.44
2019-04-21T21:40:58.741Z,36.64
2019-04-21T21:43:22.888Z,36.87
2019-04-21T21:45:55.327Z,36.97
2019-04-21T21:48:33.171Z,36.93
2019-04-21T21:51:02.244Z,37.01
2019-04-21T21:53:28.847Z,37.13
2019-04-21T21:55:56.723Z,37.22
2019-04-21T21:58:33.108Z,37.26
2019-04-21T22:01:02.656Z,37.30
2019-04-21T22:03:34.197Z,37.15
2019-04-21T22:06:07.794Z,37.36
2019-04-21T22:08:34.242Z,37.77
2019-04-21T22:11:05.455Z,38.49
2019-04-21T22:13:46.169Z,38.78
2019-04-21T22:16:10.676Z,38.84
2019-04-21T22:19:03.509Z,39.27
2019-04-21T22:21:21.559Z,39.50
2019-04-21T22:23:51.627Z,39.47
2019-04-21T22:26:11.534Z,39.54
2019-04-21T22:28:41.061Z,39.33
2019-04-21T22:31:15.069Z,39.12
2019-04-21T22:33:49.477Z,38.62
2019-04-21T22:36:26.435Z,38.64
2019-04-21T22:39:07.428Z,39.18
2019-04-21T22:41:26.615Z,39.58
2019-04-21T22:43:49.966Z,40.55
2019-04-21T22:46:18.343Z,40.83
2019-04-21T22:48:53.185Z,40.63
2019-04-21T22:51:28.437Z,40.12
2019-04-21T22:53:53.914Z,40.38
2019-04-21T22:56:27.020Z,40.31
2019-04-21T22:58:53.162Z,39.97
2019-04-21T23:01:28.550Z,39.82
2019-04-21T23:03:59.231Z,39.99
2019-04-21T23:06:28.939Z,40.07
2019-04-21T23:08:57.143Z,39.84
2019-04-21T23:11:29.364Z,39.88
2019-04-21T23:14:04.242Z,39.70
2019-04-21T23:16:33.723Z,39.84
2019-04-21T23:19:21.196Z,39.49
2019-04-21T23:21:53.751Z,39.29
2019-04-21T23:24:25.207Z,39.63
2019-04-21T23:26:48.632Z,39.52
2019-04-21T23:29:25.793Z,39.67
2019-04-21T23:31:55.085Z,39.34
2019-04-21T23:34:10.866Z,39.55
2019-04-21T23:36:48.202Z,39.41
2019-04-21T23:39:15.674Z,39.48
2019-04-21T23:41:50.617Z,39.42
2019-04-21T23:44:15.148Z,39.21
2019-04-21T23:46:45.777Z,39.54
2019-04-21T23:49:30.624Z,39.70
2019-04-21T23:51:54.661Z,40.03
2019-04-21T23:54:17.858Z,40.22
2019-04-21T23:56:47.870Z,40.89
2019-04-21T23:59:18.033Z,41.23
